Aérodrome :
LOGIN :

S'inscrire | Disclaimer

   EN    FR    IT 

 










Légende :    VFR   VFR Marginal   IFR   IFR Intensif   IFR Très Intensif
Visi : 
Plafond : 
>= 8 km
>= 3000ft
5 à 8 km
1000 à 3000 ft
1500m à 5 km
500 à 1000 ft
800 à 1500m
200 à 500 ft
< 800m
< 200 ft
Symboles :   Orages  Brouillard  Fortes neiges  Fortes précipitations  Vent > 20 kt
SIGMETs :   Divers  Orages  Givrage  Turbulence  Onde Orograph.  Cendres Volcan.







- Altitude de l'aérodrome : 39 ft
- Code IATA : TRS


LIPQ - Friuli Venezia Giulia Apt. Trieste

DERNIER METAR :
  • 230220Z AUTO 27003KT 230V320 9999 BKN190/// 09/05 Q1023

METARs EXPIRÉS :
  • 230150Z AUTO VRB02KT 9999 BKN210/// 10/05 Q1023
  • 230120Z AUTO 02006KT 9999 OVC210/// 11/06 Q1023
  • 230050Z AUTO 01007KT 9999 OVC200/// 10/06 Q1023
  • 230020Z AUTO VRB03KT 9999 BKN190/// 10/06 Q1024
  • 222350Z AUTO VRB02KT 9999 BKN200/// 10/06 Q1024

TAF TAF LIPQ
Valide du 23 à 00h jusqu'au 24 à 00h UTC


222300Z 2300/2324 06014KT 9999 FEW040
BECMG 2300/2302 VRB05KT
Pas de NOTAMs connus pour ce terrain.
1 SIGMET publié pour la FIR Milano (LIMM) :
 
Turbulence forte
LIMM SIGMET 11 VALID 230100/230500 LIIP
LIMM MILANO FIR SEV TURB FCST S OF LINE N4522 E01321 - N4315 E00842 FL280/360 MOV SE WKN=



MET'MAP, la Météo Aéronautique d'un coup d'oeil ! - Copyright ORBIFLY Décembre 2007 - Disclaimer

ORBIFLY MET'MAP TEAM :

Programmation & Développement : Alexandra Zaïnal
Conception & Développement : Baudouin d'Aumeries
Co-Programmation & Développement : Marc-Olivier Méhu
Soutien technique & logistique : Manuel Goepfert

Contact : metmap@orbifly.com




SOURCES & CREDITS :

   NOAA